Huvudsida
METAR-TAF:

METAR-TAF

Flygplatser :

Windhoek, Namibia

latitud: 22-29S, longitud: 017-28E, höjd: 1715 m

Aktuellt väderrapport

Denna rapport gjordes för 2 timmar och 3 minuter sedan, klockan 20:00 UTC
Vind 11 kt från väst
Temperatur 24°C
Fuktighet 54%
Tryck 1021 hPa
Sikt 10 km eller mer
Få moln på en höjd av 3500 ft, Cumulonimbus.
åska,

METAR: FYWH 222000Z 26011KT 9999 TS FEW035CB 24/14 Q1021 NOSIG

Tid: 00:03 (22:03 UTC)

Väderprognos

Denna rapport gjordes för 6 timmar och 3 minuter sedan, klockan 16:00 UTC
Prognos gäller från 22 kl. 18 UTC till 23 kl. 18 UTC
Vind kt från nord
Sikt 10 km eller mer
Få moln på en höjd av 3500 ft, Cumulonimbus.
Spridda moln på en höjd av 4000 ft, Högtornande cumulus.
Temporärt
från 22 kl. 18 UTC till 22 kl. 20 UTC
Vind 5 kt från väst/sydväst
Få moln på en höjd av 3000 ft, Cumulonimbus.
åska, lätt regn,

TAF: FYWH 221600Z 2218/2318 00000KT 9999 FEW035CB SCT040TCU TEMPO 2218/2220 24005KT -TSRA FEW030CB

Aktuella väderrapporter och prognoser från 4000 flygplatser (METAR- och TAF-rapporter).

De tillgängliga stationerna syns som gula och röda prickar på kartan.

För musen över prickarna för att se namnen på stationerna.

Klicka sedan för att få väderrapporter och prognoser.

För att ändra kartan: Klicka på de gröna knapparna med ett svart kors på för att zooma in; den gröna knappen med ett streck på för att zooma ut; eller på de gröna pilarna för angränsande kartor.


METAR-TAF: